Time,TemperatureF,DewpointF,PressureIn,WindDirection,WindDirectionDegrees,WindSpeedMPH,WindSpeedGustMPH,Humidity,HourlyPrecipIn,Conditions,Clouds,dailyrainin,SoftwareType,DateUTC
2013-07-02 00:11:00,65.0,52.0,-100.00,NE,45,1.0,1.0,62,-99.99,,,-99.99,,2013-07-02 05:11:00,
2013-07-02 00:22:00,65.0,52.0,-100.00,NE,45,1.0,1.0,62,-99.99,,,-99.99,,2013-07-02 05:22:00,
2013-07-02 01:43:00,63.0,50.0,-100.00,NE,40,1.0,1.0,62,-99.99,,,-99.99,,2013-07-02 06:43:00,
2013-07-02 01:53:00,63.0,50.0,-100.00,NE,40,1.0,1.0,62,-99.99,,,-99.99,,2013-07-02 06:53:00,
2013-07-02 02:12:00,64.0,54.0,-100.00,NE,55,1.0,1.0,68,-99.99,,,-99.99,,2013-07-02 07:12:00,
2013-07-02 02:22:00,64.0,54.0,-100.00,NE,55,1.0,1.0,68,-99.99,,,-99.99,,2013-07-02 07:22:00,
2013-07-02 02:34:00,64.0,54.0,-100.00,NE,55,1.0,1.0,68,-99.99,,,-99.99,,2013-07-02 07:34:00,
2013-07-02 03:44:00,61.0,54.0,-100.00,NNE,25,1.0,1.0,78,-99.99,,,-99.99,,2013-07-02 08:44:00,
2013-07-02 03:53:00,61.0,54.0,-100.00,NNE,25,1.0,1.0,78,-99.99,,,-99.99,,2013-07-02 08:53:00,
2013-07-02 04:11:00,60.0,50.0,-100.00,NNE,30,1.0,1.0,71,-99.99,,,-99.99,,2013-07-02 09:11:00,
2013-07-02 04:23:00,60.0,50.0,-100.00,NNE,30,1.0,1.0,71,-99.99,,,-99.99,,2013-07-02 09:23:00,
2013-07-02 04:43:00,64.0,53.0,-100.00,NE,40,1.0,1.0,67,-99.99,,,-99.99,,2013-07-02 09:43:00,
2013-07-02 04:52:00,64.0,53.0,-100.00,NE,40,1.0,1.0,67,-99.99,,,-99.99,,2013-07-02 09:52:00,
2013-07-02 05:11:00,63.0,52.0,-100.00,NE,35,1.0,1.0,66,-99.99,,,-99.99,,2013-07-02 10:11:00,
2013-07-02 05:22:00,63.0,52.0,-100.00,NE,35,1.0,1.0,66,-99.99,,,-99.99,,2013-07-02 10:22:00,
2013-07-02 05:44:00,63.0,55.0,-100.00,NE,35,1.0,1.0,74,-99.99,,,-99.99,,2013-07-02 10:44:00,
2013-07-02 05:52:00,63.0,55.0,-100.00,NE,35,1.0,1.0,74,-99.99,,,-99.99,,2013-07-02 10:52:00,
2013-07-02 06:11:00,61.0,53.0,-100.00,NE,35,1.0,1.0,74,-99.99,,,-99.99,,2013-07-02 11:11:00,
2013-07-02 06:22:00,61.0,53.0,-100.00,NE,35,1.0,1.0,74,-99.99,,,-99.99,,2013-07-02 11:22:00,
2013-07-02 06:33:00,59.0,51.0,-100.00,NE,45,1.0,1.0,73,-99.99,,,-99.99,,2013-07-02 11:33:00,
2013-07-02 07:43:00,59.0,51.0,-100.00,NNE,25,1.0,1.0,75,-99.99,,,-99.99,,2013-07-02 12:43:00,
2013-07-02 07:52:00,59.0,51.0,-100.00,NNE,25,1.0,1.0,75,-99.99,,,-99.99,,2013-07-02 12:52:00,
2013-07-02 08:52:00,61.0,53.0,-100.00,NE,40,1.0,1.0,74,-99.99,,,-99.99,,2013-07-02 13:52:00,
2013-07-02 09:43:00,67.0,56.0,-100.00,NE,40,1.0,1.0,69,-99.99,,,-99.99,,2013-07-02 14:43:00,
2013-07-02 09:53:00,67.0,56.0,-100.00,NE,40,1.0,1.0,69,-99.99,,,-99.99,,2013-07-02 14:53:00,
2013-07-02 10:22:00,64.0,54.0,-100.00,North,10,1.0,1.0,70,-99.99,,,-99.99,,2013-07-02 15:22:00,
2013-07-02 10:53:00,67.0,53.0,-100.00,NE,40,1.0,1.0,62,-99.99,,,-99.99,,2013-07-02 15:53:00,
2013-07-02 11:22:00,66.0,52.0,-100.00,NNE,25,1.0,1.0,61,-99.99,,,-99.99,,2013-07-02 16:22:00,
2013-07-02 11:43:00,67.0,54.0,-100.00,NE,55,1.0,1.0,63,-99.99,,,-99.99,,2013-07-02 16:43:00,
2013-07-02 11:52:00,67.0,54.0,-100.00,NE,55,1.0,1.0,63,-99.99,,,-99.99,,2013-07-02 16:52:00,
2013-07-02 12:12:00,70.0,54.0,-100.00,NE,40,1.0,1.0,57,-99.99,,,-99.99,,2013-07-02 17:12:00,
2013-07-02 12:22:00,70.0,54.0,-100.00,NE,40,1.0,1.0,57,-99.99,,,-99.99,,2013-07-02 17:22:00,
2013-07-02 12:43:00,69.0,53.0,-100.00,NE,40,1.0,1.0,57,-99.99,,,-99.99,,2013-07-02 17:43:00,
2013-07-02 12:53:00,69.0,53.0,-100.00,NE,40,1.0,1.0,57,-99.99,,,-99.99,,2013-07-02 17:53:00,
2013-07-02 14:22:00,73.0,52.0,-100.00,NNE,30,1.0,1.0,48,-99.99,,,-99.99,,2013-07-02 19:22:00,
2013-07-02 15:11:00,69.0,54.0,-100.00,NNE,30,1.0,1.0,60,-99.99,,,-99.99,,2013-07-02 20:11:00,
2013-07-02 15:22:00,69.0,54.0,-100.00,NNE,30,1.0,1.0,60,-99.99,,,-99.99,,2013-07-02 20:22:00,
2013-07-02 15:43:00,67.0,51.0,-100.00,NNE,20,1.0,1.0,56,-99.99,,,-99.99,,2013-07-02 20:43:00,
2013-07-02 15:52:00,67.0,51.0,-100.00,NNE,20,1.0,1.0,56,-99.99,,,-99.99,,2013-07-02 20:52:00,
2013-07-02 16:22:00,68.0,51.0,-100.00,NNE,20,1.0,1.0,53,-99.99,,,-99.99,,2013-07-02 21:22:00,
2013-07-02 16:44:00,72.0,56.0,-100.00,NNE,15,1.0,1.0,57,-99.99,,,-99.99,,2013-07-02 21:44:00,
2013-07-02 16:52:00,72.0,56.0,-100.00,NNE,15,1.0,1.0,57,-99.99,,,-99.99,,2013-07-02 21:52:00,
2013-07-02 17:22:00,69.0,52.0,-100.00,NNE,15,1.0,1.0,56,-99.99,,,-99.99,,2013-07-02 22:22:00,
2013-07-02 17:53:00,66.0,50.0,-100.00,NNE,25,1.0,1.0,57,-99.99,,,-99.99,,2013-07-02 22:53:00,
2013-07-02 19:11:00,72.0,52.0,-100.00,NE,45,1.0,1.0,51,-99.99,,,-99.99,,2013-07-03 00:11:00,
2013-07-02 19:22:00,72.0,52.0,-100.00,NE,45,1.0,1.0,51,-99.99,,,-99.99,,2013-07-03 00:22:00,
2013-07-02 21:14:00,64.0,53.0,-100.00,NNE,30,1.0,1.0,69,-99.99,,,-99.99,,2013-07-03 02:14:00,
2013-07-02 21:27:00,64.0,53.0,-100.00,NNE,30,1.0,1.0,69,-99.99,,,-99.99,,2013-07-03 02:27:00,
2013-07-02 21:44:00,60.0,50.0,-100.00,NE,50,1.0,1.0,70,-99.99,,,-99.99,,2013-07-03 02:44:00,
2013-07-02 21:59:00,60.0,50.0,-100.00,NE,50,1.0,1.0,70,-99.99,,,-99.99,,2013-07-03 02:59:00,
2013-07-02 22:13:00,63.0,55.0,-100.00,NE,50,1.0,1.0,75,-99.99,,,-99.99,,2013-07-03 03:13:00,
2013-07-02 22:25:00,63.0,55.0,-100.00,NE,50,1.0,1.0,75,-99.99,,,-99.99,,2013-07-03 03:25:00,
2013-07-02 22:47:00,59.0,52.0,-100.00,East,85,1.0,1.0,78,-99.99,,,-99.99,,2013-07-03 03:47:00,
2013-07-02 23:11:00,60.0,54.0,-100.00,NE,35,1.0,1.0,79,-99.99,,,-99.99,,2013-07-03 04:11:00,
2013-07-02 23:22:00,60.0,54.0,-100.00,NE,35,1.0,1.0,79,-99.99,,,-99.99,,2013-07-03 04:22:00,
2013-07-02 23:33:00,60.0,54.0,-100.00,NE,35,1.0,1.0,79,-99.99,,,-99.99,,2013-07-03 04:33:00,
2013-07-02 23:43:00,61.0,55.0,-100.00,ENE,60,1.0,1.0,81,-99.99,,,-99.99,,2013-07-03 04:43:00,
2013-07-02 23:52:00,61.0,55.0,-100.00,ENE,60,1.0,1.0,81,-99.99,,,-99.99,,2013-07-03 04:52:00,